createdAt,value
2023-05-05T00:00:03.509Z,11.33
2023-05-05T00:01:03.496Z,11.30
2023-05-05T00:02:03.474Z,11.28
2023-05-05T00:03:03.541Z,11.25
2023-05-05T00:04:03.502Z,11.22
2023-05-05T00:05:03.430Z,11.21
2023-05-05T00:06:03.438Z,11.21
2023-05-05T00:07:03.423Z,11.23
2023-05-05T00:08:03.401Z,11.27
2023-05-05T00:09:03.382Z,11.32
2023-05-05T00:10:03.394Z,11.37
2023-05-05T00:11:03.380Z,11.40
2023-05-05T00:12:03.346Z,11.41
2023-05-05T00:13:03.350Z,11.41
2023-05-05T00:14:03.310Z,11.40
2023-05-05T00:15:03.330Z,11.38
2023-05-05T00:16:03.290Z,11.35
2023-05-05T00:17:03.318Z,11.33
2023-05-05T00:18:03.322Z,11.31
2023-05-05T00:19:03.248Z,11.31
2023-05-05T00:20:03.269Z,11.32
2023-05-05T00:21:03.235Z,11.34
2023-05-05T00:22:03.251Z,11.37
2023-05-05T00:23:03.219Z,11.40
2023-05-05T00:24:03.193Z,11.44
2023-05-05T00:25:03.172Z,11.48
2023-05-05T00:26:03.202Z,11.52
2023-05-05T00:27:03.143Z,11.55
2023-05-05T00:28:03.133Z,11.58
2023-05-05T00:29:03.207Z,11.60
2023-05-05T00:30:03.107Z,11.62
2023-05-05T00:31:03.196Z,11.66
2023-05-05T00:32:03.131Z,11.69
2023-05-05T00:33:03.131Z,11.72
2023-05-05T00:34:03.074Z,11.75
2023-05-05T00:35:03.084Z,11.77
2023-05-05T00:36:03.084Z,11.78
2023-05-05T00:37:03.046Z,11.78
2023-05-05T00:38:03.019Z,11.79
2023-05-05T00:39:03.002Z,11.80
2023-05-05T00:40:03.066Z,11.81
2023-05-05T00:41:03.059Z,11.81
2023-05-05T00:42:02.962Z,11.81
2023-05-05T00:43:02.974Z,11.80
2023-05-05T00:44:02.945Z,11.81
2023-05-05T00:45:02.934Z,11.82
2023-05-05T00:46:03.010Z,11.84
2023-05-05T00:47:02.906Z,11.85
2023-05-05T00:48:02.916Z,11.85
2023-05-05T00:49:02.928Z,11.85
2023-05-05T00:50:02.876Z,11.85
2023-05-05T00:51:02.870Z,11.83
2023-05-05T00:52:02.845Z,11.81
2023-05-05T00:53:02.847Z,11.78
2023-05-05T00:54:02.815Z,11.74
2023-05-05T00:55:02.822Z,11.71
2023-05-05T00:56:02.807Z,11.68
2023-05-05T00:57:02.781Z,11.65
2023-05-05T00:58:02.824Z,11.62
2023-05-05T00:59:02.750Z,11.60
2023-05-05T01:00:02.741Z,11.57
2023-05-05T01:01:02.753Z,11.55
2023-05-05T01:02:02.774Z,11.52
2023-05-05T01:03:10.199Z,11.49
2023-05-05T01:04:02.787Z,11.45
2023-05-05T01:05:02.684Z,11.41
2023-05-05T01:06:02.661Z,11.37
2023-05-05T01:07:02.668Z,11.32
2023-05-05T01:08:02.642Z,11.30
2023-05-05T01:09:02.630Z,11.29
2023-05-05T01:10:18.230Z,11.30
2023-05-05T01:11:02.631Z,11.31
2023-05-05T01:12:02.614Z,11.31
2023-05-05T01:13:02.643Z,11.30
2023-05-05T01:14:02.572Z,11.28
2023-05-05T01:15:02.548Z,11.23
2023-05-05T01:16:02.584Z,11.18
2023-05-05T01:17:02.542Z,11.13
2023-05-05T01:18:02.570Z,11.08
2023-05-05T01:19:02.499Z,11.05
2023-05-05T01:20:02.491Z,11.04
2023-05-05T01:21:02.482Z,11.04
2023-05-05T01:22:02.463Z,11.05
2023-05-05T01:23:02.483Z,11.05
2023-05-05T01:24:02.419Z,11.04
2023-05-05T01:25:02.433Z,11.03
2023-05-05T01:26:02.477Z,11.02
2023-05-05T01:27:02.400Z,11.02
2023-05-05T01:28:02.381Z,11.03
2023-05-05T01:29:02.398Z,11.03
2023-05-05T01:30:02.390Z,11.03
2023-05-05T01:31:02.336Z,11.02
2023-05-05T01:32:02.350Z,11.02
2023-05-05T01:33:02.318Z,11.04
2023-05-05T01:34:02.300Z,11.07
2023-05-05T01:35:02.324Z,11.10
2023-05-05T01:36:02.293Z,11.12
2023-05-05T01:37:02.290Z,11.12
2023-05-05T01:38:02.247Z,11.09
2023-05-05T01:39:02.249Z,11.03
2023-05-05T01:40:02.217Z,10.94
2023-05-05T01:41:02.232Z,10.86
2023-05-05T01:42:02.213Z,10.78
2023-05-05T01:43:02.198Z,10.72
2023-05-05T01:44:02.189Z,10.68
2023-05-05T01:45:02.163Z,10.64
2023-05-05T01:46:02.188Z,10.61
2023-05-05T01:47:02.157Z,10.58
2023-05-05T01:48:02.145Z,10.56
2023-05-05T01:49:02.121Z,10.55
2023-05-05T01:50:02.149Z,10.56
2023-05-05T01:51:02.076Z,10.59
2023-05-05T01:52:02.064Z,10.62
2023-05-05T01:53:02.084Z,10.67
2023-05-05T01:54:02.053Z,10.73
2023-05-05T01:55:02.043Z,10.81
2023-05-05T01:56:02.037Z,10.88
2023-05-05T01:57:02.031Z,10.93
2023-05-05T01:58:01.987Z,10.97
2023-05-05T01:59:02.019Z,10.99
2023-05-05T02:00:02.039Z,11.00
2023-05-05T02:01:01.988Z,11.01
2023-05-05T02:02:01.974Z,11.01
2023-05-05T02:03:02.042Z,11.02
2023-05-05T02:04:01.943Z,11.02
2023-05-05T02:05:01.926Z,11.02
2023-05-05T02:06:01.924Z,11.01
2023-05-05T02:07:01.871Z,11.01
2023-05-05T02:08:01.870Z,11.01
2023-05-05T02:09:01.887Z,11.02
2023-05-05T02:10:01.871Z,11.04
2023-05-05T02:11:01.820Z,11.06
2023-05-05T02:12:01.816Z,11.08
2023-05-05T02:13:01.795Z,11.09
2023-05-05T02:14:01.840Z,11.10
2023-05-05T02:15:01.783Z,11.11
2023-05-05T02:16:01.843Z,11.12
2023-05-05T02:17:01.750Z,11.13
2023-05-05T02:18:01.788Z,11.14
2023-05-05T02:19:01.749Z,11.15
2023-05-05T02:20:01.805Z,11.17
2023-05-05T02:21:01.729Z,11.19
2023-05-05T02:22:01.685Z,11.19
2023-05-05T02:23:01.712Z,11.20
2023-05-05T02:24:01.702Z,11.20
2023-05-05T02:25:01.671Z,11.20
2023-05-05T02:26:01.650Z,11.20
2023-05-05T02:27:01.642Z,11.19
2023-05-05T02:28:01.619Z,11.18
2023-05-05T02:29:01.598Z,11.16
2023-05-05T02:30:01.621Z,11.12
2023-05-05T02:31:01.588Z,11.09
2023-05-05T02:32:01.562Z,11.05
2023-05-05T02:33:01.578Z,11.01
2023-05-05T02:34:01.530Z,10.97
2023-05-05T02:35:01.539Z,10.94
2023-05-05T02:36:01.554Z,10.91
2023-05-05T02:37:01.501Z,10.88
2023-05-05T02:38:01.498Z,10.86
2023-05-05T02:39:01.484Z,10.84
2023-05-05T02:40:01.474Z,10.83
2023-05-05T02:41:01.444Z,10.81
2023-05-05T02:42:01.453Z,10.80
2023-05-05T02:43:01.442Z,10.79
2023-05-05T02:44:01.426Z,10.79
2023-05-05T02:45:01.394Z,10.79
2023-05-05T02:46:01.425Z,10.79
2023-05-05T02:47:01.398Z,10.80
2023-05-05T02:48:01.444Z,10.81
2023-05-05T02:49:01.351Z,10.82
2023-05-05T02:50:01.346Z,10.82
2023-05-05T02:51:01.315Z,10.84
2023-05-05T02:52:01.309Z,10.87
2023-05-05T02:53:01.308Z,10.90
2023-05-05T02:54:01.313Z,10.92
2023-05-05T02:55:01.273Z,10.93
2023-05-05T02:56:01.292Z,10.94
2023-05-05T02:57:01.265Z,10.96
2023-05-05T02:58:01.232Z,10.99
2023-05-05T02:59:01.234Z,11.01
2023-05-05T03:00:01.201Z,11.04
2023-05-05T03:01:01.195Z,11.07
2023-05-05T03:02:01.188Z,11.09
2023-05-05T03:03:01.247Z,11.08
2023-05-05T03:04:01.149Z,11.07
2023-05-05T03:05:01.152Z,11.07
2023-05-05T03:06:01.138Z,11.07
2023-05-05T03:07:01.109Z,11.07
2023-05-05T03:08:01.184Z,11.05
2023-05-05T03:09:01.093Z,11.02
2023-05-05T03:10:01.076Z,10.98
2023-05-05T03:11:01.105Z,10.95
2023-05-05T03:12:01.058Z,10.93
2023-05-05T03:13:01.113Z,10.94
2023-05-05T03:14:01.045Z,10.95
2023-05-05T03:15:01.006Z,10.94
2023-05-05T03:16:01.018Z,10.93
2023-05-05T03:17:01.002Z,10.89
2023-05-05T03:18:00.990Z,10.85
2023-05-05T03:19:00.954Z,10.81
2023-05-05T03:20:03.458Z,10.80
2023-05-05T03:21:00.941Z,10.80
2023-05-05T03:22:00.959Z,10.80
2023-05-05T03:23:00.924Z,10.80
2023-05-05T03:24:00.918Z,10.80
2023-05-05T03:25:00.875Z,10.79
2023-05-05T03:26:00.875Z,10.80
2023-05-05T03:27:00.870Z,10.79
2023-05-05T03:28:00.857Z,10.77
2023-05-05T03:29:00.850Z,10.74
2023-05-05T03:30:00.842Z,10.71
2023-05-05T03:31:00.801Z,10.66
2023-05-05T03:32:00.794Z,10.62
2023-05-05T03:33:00.873Z,10.56
2023-05-05T03:34:00.769Z,10.51
2023-05-05T03:35:00.797Z,10.47
2023-05-05T03:36:00.746Z,10.46
2023-05-05T03:37:00.729Z,10.47
2023-05-05T03:38:00.710Z,10.48
2023-05-05T03:39:00.708Z,10.49
2023-05-05T03:40:00.679Z,10.49
2023-05-05T03:41:00.695Z,10.48
2023-05-05T03:42:00.674Z,10.46
2023-05-05T03:43:00.686Z,10.45
2023-05-05T03:44:00.656Z,10.43
2023-05-05T03:45:00.630Z,10.41
2023-05-05T03:46:00.687Z,10.41
2023-05-05T03:47:00.618Z,10.42
2023-05-05T03:48:00.660Z,10.46
2023-05-05T03:49:00.587Z,10.51
2023-05-05T03:50:00.628Z,10.56
2023-05-05T03:51:00.609Z,10.62
2023-05-05T03:52:00.533Z,10.66
2023-05-05T03:53:00.588Z,10.71
2023-05-05T03:54:00.516Z,10.74
2023-05-05T03:55:00.500Z,10.75
2023-05-05T03:56:00.543Z,10.75
2023-05-05T03:57:00.485Z,10.74
2023-05-05T03:58:00.485Z,10.72
2023-05-05T03:59:00.463Z,10.70
2023-05-05T04:00:00.444Z,10.69
2023-05-05T04:01:00.446Z,10.69
2023-05-05T04:02:00.528Z,10.69
2023-05-05T04:03:00.502Z,10.69
2023-05-05T04:04:00.408Z,10.68
2023-05-05T04:05:00.378Z,10.67
2023-05-05T04:06:00.386Z,10.65
2023-05-05T04:07:00.344Z,10.62
2023-05-05T04:08:00.372Z,10.60
2023-05-05T04:09:00.326Z,10.57
2023-05-05T04:10:00.348Z,10.55
2023-05-05T04:11:00.300Z,10.54
2023-05-05T04:12:00.290Z,10.53
2023-05-05T04:13:00.320Z,10.52
2023-05-05T04:14:00.264Z,10.51
2023-05-05T04:15:00.282Z,10.49
2023-05-05T04:16:00.323Z,10.46
2023-05-05T04:17:00.229Z,10.43
2023-05-05T04:18:00.267Z,10.40
2023-05-05T04:19:00.240Z,10.39
2023-05-05T04:20:00.217Z,10.36
2023-05-05T04:21:00.202Z,10.34
2023-05-05T04:22:00.203Z,10.32
2023-05-05T04:23:00.156Z,10.30
2023-05-05T04:24:00.182Z,10.30
2023-05-05T04:25:00.241Z,10.30
2023-05-05T04:26:00.163Z,10.30
2023-05-05T04:27:00.106Z,10.30
2023-05-05T04:28:00.145Z,10.31
2023-05-05T04:29:00.189Z,10.34
2023-05-05T04:30:00.060Z,10.38
2023-05-05T04:31:00.123Z,10.43
2023-05-05T04:32:00.056Z,10.49
2023-05-05T04:33:00.068Z,10.56
2023-05-05T04:34:00.003Z,10.62
2023-05-05T04:34:59.996Z,10.67
2023-05-05T04:35:59.976Z,10.72
2023-05-05T04:36:59.991Z,10.77
2023-05-05T04:37:59.962Z,10.82
2023-05-05T04:38:59.969Z,10.87
2023-05-05T04:39:59.921Z,10.92
2023-05-05T04:40:59.966Z,10.96
2023-05-05T04:41:59.933Z,10.99
2023-05-05T04:42:59.890Z,11.02
2023-05-05T04:43:59.880Z,11.03
2023-05-05T04:44:59.889Z,11.05
2023-05-05T04:45:59.849Z,11.05
2023-05-05T04:46:59.883Z,11.06
2023-05-05T04:47:59.916Z,11.08
2023-05-05T04:48:59.846Z,11.10
2023-05-05T04:49:59.802Z,11.14
2023-05-05T04:50:59.785Z,11.19
2023-05-05T04:51:59.784Z,11.26
2023-05-05T04:52:59.780Z,11.33
2023-05-05T04:53:59.745Z,11.41
2023-05-05T04:54:59.750Z,11.48
2023-05-05T04:55:59.738Z,11.56
2023-05-05T04:56:59.727Z,11.63
2023-05-05T04:57:59.699Z,11.70
2023-05-05T04:58:59.705Z,11.76
2023-05-05T04:59:59.664Z,11.83
2023-05-05T05:00:59.680Z,11.89
2023-05-05T05:01:59.704Z,11.95
2023-05-05T05:02:59.715Z,12.01
2023-05-05T05:03:59.644Z,12.06
2023-05-05T05:04:59.634Z,12.11
2023-05-05T05:05:59.598Z,12.15
2023-05-05T05:06:59.587Z,12.19
2023-05-05T05:07:59.575Z,12.21
2023-05-05T05:08:59.557Z,12.25
2023-05-05T05:09:59.594Z,12.29
2023-05-05T05:10:59.553Z,12.34
2023-05-05T05:11:59.518Z,12.40
2023-05-05T05:12:59.554Z,12.46
2023-05-05T05:13:59.512Z,12.52
2023-05-05T05:14:59.479Z,12.58
2023-05-05T05:15:59.562Z,12.64
2023-05-05T05:16:59.509Z,12.69
2023-05-05T05:17:59.495Z,12.75
2023-05-05T05:19:01.480Z,12.81
2023-05-05T05:19:59.447Z,12.86
2023-05-05T05:20:59.413Z,12.91
2023-05-05T05:21:59.432Z,12.96
2023-05-05T05:22:59.376Z,13.02
2023-05-05T05:23:59.364Z,13.09
2023-05-05T05:24:59.351Z,13.19
2023-05-05T05:25:59.337Z,13.29
2023-05-05T05:26:59.390Z,13.38
2023-05-05T05:28:09.386Z,13.46
2023-05-05T05:28:59.331Z,13.52
2023-05-05T05:29:59.279Z,13.59
2023-05-05T05:30:59.278Z,13.67
2023-05-05T05:31:59.287Z,13.74
2023-05-05T05:32:59.300Z,13.81
2023-05-05T05:33:59.256Z,13.88
2023-05-05T05:34:59.282Z,13.92
2023-05-05T05:35:59.203Z,13.95
2023-05-05T05:36:59.199Z,13.95
2023-05-05T05:37:59.189Z,13.97
2023-05-05T05:38:59.180Z,14.01
2023-05-05T05:39:59.164Z,14.07
2023-05-05T05:40:59.158Z,14.12
2023-05-05T05:41:59.149Z,14.14
2023-05-05T05:42:59.127Z,14.16
2023-05-05T05:43:59.109Z,14.19
2023-05-05T05:44:59.135Z,14.23
2023-05-05T05:45:59.081Z,14.25
2023-05-05T05:46:59.075Z,14.25
2023-05-05T05:47:59.087Z,14.26
2023-05-05T05:48:59.064Z,14.28
2023-05-05T05:49:59.056Z,14.32
2023-05-05T05:50:59.006Z,14.38
2023-05-05T05:51:59.004Z,14.46
2023-05-05T05:52:59.009Z,14.56
2023-05-05T05:53:59.101Z,14.65
2023-05-05T05:54:59.011Z,14.75
2023-05-05T05:55:58.955Z,14.86
2023-05-05T05:56:58.935Z,14.97
2023-05-05T05:57:58.931Z,15.07
2023-05-05T05:58:58.936Z,15.17
2023-05-05T06:00:04.763Z,15.26
2023-05-05T06:00:58.896Z,15.33
2023-05-05T06:01:58.913Z,15.34
2023-05-05T06:02:59.034Z,15.29
2023-05-05T06:03:58.923Z,15.20
2023-05-05T06:04:58.904Z,15.10
2023-05-05T06:05:58.852Z,15.06
2023-05-05T06:06:58.808Z,15.07
2023-05-05T06:07:58.812Z,15.04
2023-05-05T06:08:58.797Z,14.98
2023-05-05T06:10:01.320Z,14.92
2023-05-05T06:10:58.775Z,14.89
2023-05-05T06:11:58.759Z,14.92
2023-05-05T06:12:58.814Z,15.02
2023-05-05T06:13:58.732Z,15.13
2023-05-05T06:14:58.743Z,15.27
2023-05-05T06:15:58.709Z,15.44
2023-05-05T06:16:58.692Z,15.58
2023-05-05T06:17:58.744Z,15.72
2023-05-05T06:18:58.694Z,15.90
2023-05-05T06:19:58.640Z,16.05
2023-05-05T06:20:58.676Z,16.13
2023-05-05T06:21:58.634Z,16.17
2023-05-05T06:22:58.631Z,16.18
2023-05-05T06:23:58.622Z,16.19
2023-05-05T06:24:58.599Z,16.20
2023-05-05T06:25:58.595Z,16.15
2023-05-05T06:26:58.573Z,16.07
2023-05-05T06:27:58.539Z,15.99
2023-05-05T06:28:58.563Z,15.89
2023-05-05T06:29:58.542Z,15.80
2023-05-05T06:30:58.546Z,15.71
2023-05-05T06:31:58.501Z,15.61
2023-05-05T06:32:58.516Z,15.54
2023-05-05T06:33:58.469Z,15.50
2023-05-05T06:34:58.489Z,15.52
2023-05-05T06:35:58.457Z,15.61
2023-05-05T06:36:58.438Z,15.70
2023-05-05T06:37:58.428Z,15.76
2023-05-05T06:38:58.423Z,15.82
2023-05-05T06:39:58.402Z,15.88
2023-05-05T06:40:58.428Z,15.94
2023-05-05T06:41:58.402Z,16.02
2023-05-05T06:42:58.350Z,16.13
2023-05-05T06:43:58.347Z,16.24
2023-05-05T06:44:58.396Z,16.32
2023-05-05T06:45:58.331Z,16.45
2023-05-05T06:46:58.370Z,16.60
2023-05-05T06:47:58.335Z,16.70
2023-05-05T06:48:58.284Z,16.75
2023-05-05T06:49:58.301Z,16.79
2023-05-05T06:50:58.269Z,16.84
2023-05-05T06:51:58.288Z,16.90
2023-05-05T06:52:58.263Z,17.00
2023-05-05T06:53:58.226Z,17.10
2023-05-05T06:54:58.210Z,17.10
2023-05-05T06:55:58.198Z,17.01
2023-05-05T06:56:59.565Z,16.91
2023-05-05T06:57:58.175Z,16.84
2023-05-05T06:58:58.164Z,16.83
2023-05-05T06:59:58.152Z,16.93
2023-05-05T07:00:58.187Z,17.13
2023-05-05T07:01:58.158Z,17.29
2023-05-05T07:02:58.169Z,17.45
2023-05-05T07:03:58.133Z,17.63
2023-05-05T07:04:58.102Z,17.78
2023-05-05T07:05:58.064Z,17.92
2023-05-05T07:06:58.063Z,18.04
2023-05-05T07:07:58.065Z,18.17
2023-05-05T07:08:58.060Z,18.26
2023-05-05T07:09:58.019Z,18.38
2023-05-05T07:10:58.056Z,18.45
2023-05-05T07:11:57.997Z,18.42
2023-05-05T07:12:58.024Z,18.56
2023-05-05T07:13:57.999Z,18.90
2023-05-05T07:14:57.995Z,19.04
2023-05-05T07:15:57.968Z,19.03
2023-05-05T07:16:58.168Z,19.21
2023-05-05T07:17:58.252Z,19.50
2023-05-05T07:18:57.990Z,19.78
2023-05-05T07:19:57.897Z,19.92
2023-05-05T07:20:57.936Z,20.05
2023-05-05T07:21:58.000Z,20.36
2023-05-05T07:22:57.872Z,20.59
2023-05-05T07:23:57.885Z,20.39
2023-05-05T07:24:57.853Z,19.94
2023-05-05T07:25:57.891Z,19.48
2023-05-05T07:26:57.835Z,19.16
2023-05-05T07:27:57.823Z,19.06
2023-05-05T07:28:57.816Z,19.14
2023-05-05T07:29:57.813Z,19.36
2023-05-05T07:30:57.802Z,19.65
2023-05-05T07:31:57.800Z,19.87
2023-05-05T07:32:57.794Z,19.93
2023-05-05T07:33:57.758Z,19.85
2023-05-05T07:34:57.738Z,19.70
2023-05-05T07:35:57.750Z,19.62
2023-05-05T07:36:57.707Z,19.62
2023-05-05T07:37:57.685Z,19.58
2023-05-05T07:38:57.687Z,19.50
2023-05-05T07:39:57.676Z,19.41
2023-05-05T07:40:57.671Z,19.35
2023-05-05T07:41:57.664Z,19.36
2023-05-05T07:42:57.635Z,19.43
2023-05-05T07:43:57.615Z,19.45
2023-05-05T07:44:57.592Z,19.43
2023-05-05T07:45:57.642Z,19.44
2023-05-05T07:46:57.584Z,19.41
2023-05-05T07:47:57.598Z,19.31
2023-05-05T07:48:57.577Z,19.30
2023-05-05T07:49:57.557Z,19.35
2023-05-05T07:50:57.584Z,19.43
2023-05-05T07:51:57.517Z,19.52
2023-05-05T07:53:06.239Z,19.56
2023-05-05T07:53:57.495Z,19.49
2023-05-05T07:54:57.501Z,19.44
2023-05-05T07:55:57.473Z,19.47
2023-05-05T07:56:57.489Z,19.59
2023-05-05T07:57:57.437Z,19.87
2023-05-05T07:58:57.440Z,20.43
2023-05-05T07:59:57.425Z,21.10
2023-05-05T08:00:57.429Z,21.89
2023-05-05T08:01:57.426Z,22.70
2023-05-05T08:02:57.474Z,23.22
2023-05-05T08:03:57.449Z,23.43
2023-05-05T08:04:57.378Z,23.38
2023-05-05T08:05:57.348Z,23.11
2023-05-05T08:06:57.354Z,22.85
2023-05-05T08:07:57.350Z,22.74
2023-05-05T08:08:57.336Z,22.68
2023-05-05T08:09:57.338Z,22.63
2023-05-05T08:10:57.319Z,22.56
2023-05-05T08:11:57.278Z,22.46
2023-05-05T08:12:57.301Z,22.33
2023-05-05T08:13:57.268Z,22.13
2023-05-05T08:14:57.262Z,21.84
2023-05-05T08:15:57.254Z,21.49
2023-05-05T08:16:57.237Z,21.17
2023-05-05T08:17:57.260Z,21.01
2023-05-05T08:18:57.198Z,21.01
2023-05-05T08:19:57.231Z,21.11
2023-05-05T08:20:57.186Z,21.15
2023-05-05T08:21:58.869Z,21.06
2023-05-05T08:22:57.184Z,20.89
2023-05-05T08:23:57.132Z,20.76
2023-05-05T08:24:57.127Z,20.66
2023-05-05T08:25:57.133Z,20.50
2023-05-05T08:26:57.117Z,20.29
2023-05-05T08:27:57.098Z,20.07
2023-05-05T08:28:57.077Z,19.92
2023-05-05T08:29:57.080Z,19.83
2023-05-05T08:30:57.068Z,19.78
2023-05-05T08:31:57.181Z,19.73
2023-05-05T08:32:57.116Z,19.60
2023-05-05T08:33:57.043Z,19.43
2023-05-05T08:34:57.018Z,19.30
2023-05-05T08:35:57.009Z,19.22
2023-05-05T08:36:56.984Z,19.20
2023-05-05T08:37:59.128Z,19.25
2023-05-05T08:38:56.956Z,19.37
2023-05-05T08:39:56.964Z,19.53
2023-05-05T08:40:56.948Z,19.75
2023-05-05T08:41:56.957Z,19.98
2023-05-05T08:42:56.918Z,20.07
2023-05-05T08:43:56.925Z,20.15
2023-05-05T08:44:58.851Z,20.26
2023-05-05T08:45:56.898Z,20.37
2023-05-05T08:46:56.946Z,20.51
2023-05-05T08:47:56.942Z,20.72
2023-05-05T08:48:56.867Z,20.95
2023-05-05T08:49:56.832Z,21.16
2023-05-05T08:50:58.686Z,21.37
2023-05-05T08:51:56.797Z,21.60
2023-05-05T08:52:56.849Z,21.72
2023-05-05T08:53:56.782Z,21.69
2023-05-05T08:54:56.795Z,21.61
2023-05-05T08:55:56.746Z,21.61
2023-05-05T08:56:56.752Z,21.67
2023-05-05T08:57:56.733Z,21.67
2023-05-05T08:58:56.723Z,21.64
2023-05-05T08:59:56.718Z,21.51
2023-05-05T09:00:56.750Z,21.31
2023-05-05T09:01:56.742Z,21.20
2023-05-05T09:02:56.930Z,21.39
2023-05-05T09:03:56.660Z,21.65
2023-05-05T09:04:56.641Z,21.85
2023-05-05T09:05:56.650Z,22.08
2023-05-05T09:06:56.626Z,22.18
2023-05-05T09:07:56.643Z,22.31
2023-05-05T09:08:58.960Z,22.62
2023-05-05T09:09:56.581Z,23.14
2023-05-05T09:10:56.590Z,23.89
2023-05-05T09:11:56.624Z,24.82
2023-05-05T09:12:56.594Z,25.58
2023-05-05T09:13:56.628Z,26.06
2023-05-05T09:14:58.937Z,26.41
2023-05-05T09:15:56.588Z,26.57
2023-05-05T09:16:56.597Z,26.79
2023-05-05T09:17:56.537Z,27.04
2023-05-05T09:18:56.548Z,27.38
2023-05-05T09:19:56.504Z,27.83
2023-05-05T09:20:58.132Z,28.02
2023-05-05T09:21:56.486Z,27.82
2023-05-05T09:22:56.519Z,27.37
2023-05-05T09:23:58.541Z,26.80
2023-05-05T09:24:56.461Z,26.46
2023-05-05T09:25:56.498Z,26.30
2023-05-05T09:26:58.548Z,26.02
2023-05-05T09:27:56.459Z,25.95
2023-05-05T09:28:56.434Z,25.91
2023-05-05T09:29:56.447Z,25.82
2023-05-05T09:30:56.559Z,25.88
2023-05-05T09:31:56.480Z,26.07
2023-05-05T09:32:56.454Z,26.24
2023-05-05T09:33:56.384Z,26.31
2023-05-05T09:34:56.400Z,26.42
2023-05-05T09:35:56.557Z,26.74
2023-05-05T09:36:56.400Z,27.17
2023-05-05T09:37:56.435Z,27.37
2023-05-05T09:38:58.293Z,26.96
2023-05-05T09:39:56.406Z,26.22
2023-05-05T09:40:56.339Z,25.72
2023-05-05T09:41:56.334Z,25.62
2023-05-05T09:42:56.320Z,25.86
2023-05-05T09:43:56.316Z,26.25
2023-05-05T09:44:57.837Z,26.73
2023-05-05T09:45:56.325Z,27.23
2023-05-05T09:46:56.283Z,27.66
2023-05-05T09:47:59.672Z,27.99
2023-05-05T09:48:56.318Z,28.29
2023-05-05T09:49:56.252Z,28.55
2023-05-05T09:50:56.239Z,28.69
2023-05-05T09:51:56.281Z,28.50
2023-05-05T09:52:56.286Z,28.25
2023-05-05T09:53:56.229Z,28.24
2023-05-05T09:54:56.281Z,28.40
2023-05-05T09:55:56.218Z,28.51
2023-05-05T09:56:56.194Z,28.51
2023-05-05T09:57:56.352Z,28.31
2023-05-05T09:58:57.617Z,27.77
2023-05-05T09:59:56.172Z,27.37
2023-05-05T10:00:56.230Z,27.39
2023-05-05T10:01:56.190Z,27.43
2023-05-05T10:02:56.171Z,27.14
2023-05-05T10:03:56.166Z,26.88
2023-05-05T10:04:56.153Z,26.89
2023-05-05T10:05:56.141Z,26.81
2023-05-05T10:06:56.148Z,26.70
2023-05-05T10:07:56.134Z,26.49
2023-05-05T10:08:56.113Z,26.10
2023-05-05T10:09:56.112Z,25.70
2023-05-05T10:10:56.100Z,25.35
2023-05-05T10:11:56.104Z,25.18
2023-05-05T10:12:56.085Z,25.18
2023-05-05T10:13:56.061Z,25.16
2023-05-05T10:14:56.050Z,25.15
2023-05-05T10:15:56.130Z,25.27
2023-05-05T10:16:56.048Z,25.40
2023-05-05T10:18:07.062Z,25.39
2023-05-05T10:18:56.025Z,25.30
2023-05-05T10:19:55.998Z,25.41
2023-05-05T10:20:55.994Z,25.79
2023-05-05T10:21:55.999Z,26.23
2023-05-05T10:22:55.983Z,26.55
2023-05-05T10:23:56.005Z,26.80
2023-05-05T10:24:55.965Z,27.08
2023-05-05T10:25:55.943Z,27.38
2023-05-05T10:26:55.998Z,27.62
2023-05-05T10:27:55.939Z,28.06
2023-05-05T10:28:55.907Z,28.20
2023-05-05T10:29:55.946Z,28.18
2023-05-05T10:30:55.913Z,28.34
2023-05-05T10:31:55.936Z,28.44
2023-05-05T10:33:09.081Z,28.61
2023-05-05T10:33:55.965Z,28.94
2023-05-05T10:34:55.859Z,29.10
2023-05-05T10:35:55.921Z,29.25
2023-05-05T10:36:55.854Z,29.54
2023-05-05T10:37:55.842Z,29.54
2023-05-05T10:38:55.890Z,29.00
2023-05-05T10:39:55.817Z,28.35
2023-05-05T10:40:55.854Z,27.88
2023-05-05T10:41:55.850Z,27.34
2023-05-05T10:42:55.797Z,26.81
2023-05-05T10:43:55.784Z,26.44
2023-05-05T10:44:55.836Z,26.19
2023-05-05T10:45:55.868Z,26.23
2023-05-05T10:46:55.810Z,26.45
2023-05-05T10:47:55.800Z,26.66
2023-05-05T10:48:55.776Z,26.78
2023-05-05T10:49:55.755Z,26.69
2023-05-05T10:50:55.793Z,26.52
2023-05-05T10:51:55.723Z,26.41
2023-05-05T10:52:55.724Z,26.30
2023-05-05T10:53:55.767Z,26.16
2023-05-05T10:54:55.769Z,26.23
2023-05-05T10:55:55.707Z,26.47
2023-05-05T10:56:55.754Z,26.80
2023-05-05T10:57:55.705Z,27.16
2023-05-05T10:59:00.058Z,27.41
2023-05-05T10:59:55.648Z,27.27
2023-05-05T11:00:55.691Z,26.83
2023-05-05T11:01:55.622Z,26.48
2023-05-05T11:02:55.738Z,26.35
2023-05-05T11:03:55.645Z,26.26
2023-05-05T11:04:55.639Z,26.02
2023-05-05T11:05:55.595Z,25.75
2023-05-05T11:06:55.620Z,25.59
2023-05-05T11:07:55.598Z,25.62
2023-05-05T11:08:55.606Z,25.92
2023-05-05T11:09:55.627Z,26.23
2023-05-05T11:10:55.584Z,26.52
2023-05-05T11:11:55.579Z,26.92
2023-05-05T11:12:55.614Z,27.35
2023-05-05T11:13:55.575Z,27.62
2023-05-05T11:14:55.539Z,27.62
2023-05-05T11:15:55.542Z,27.34
2023-05-05T11:16:55.679Z,27.10
2023-05-05T11:17:55.557Z,26.91
2023-05-05T11:18:55.481Z,26.82
2023-05-05T11:19:55.558Z,26.64
2023-05-05T11:20:55.475Z,26.19
2023-05-05T11:21:55.488Z,25.87
2023-05-05T11:22:55.436Z,25.70
2023-05-05T11:23:55.435Z,25.47
2023-05-05T11:24:55.405Z,25.19
2023-05-05T11:25:55.418Z,25.00
2023-05-05T11:26:55.425Z,24.99
2023-05-05T11:27:55.418Z,25.16
2023-05-05T11:28:55.392Z,25.50
2023-05-05T11:29:55.406Z,25.90
2023-05-05T11:30:55.440Z,26.25
2023-05-05T11:31:55.367Z,26.57
2023-05-05T11:32:55.413Z,26.85
2023-05-05T11:33:55.338Z,27.12
2023-05-05T11:34:55.339Z,27.46
2023-05-05T11:35:55.299Z,27.62
2023-05-05T11:36:55.313Z,27.52
2023-05-05T11:37:55.295Z,27.41
2023-05-05T11:38:55.538Z,27.40
2023-05-05T11:39:56.324Z,27.54
2023-05-05T11:40:55.270Z,27.69
2023-05-05T11:41:55.262Z,27.75
2023-05-05T11:42:55.279Z,27.69
2023-05-05T11:43:55.283Z,27.62
2023-05-05T11:44:55.260Z,27.51
2023-05-05T11:45:55.242Z,27.31
2023-05-05T11:46:55.208Z,27.19
2023-05-05T11:47:55.222Z,26.99
2023-05-05T11:48:55.178Z,26.76
2023-05-05T11:49:55.162Z,26.66
2023-05-05T11:50:55.179Z,26.71
2023-05-05T11:51:55.149Z,26.80
2023-05-05T11:52:55.166Z,26.85
2023-05-05T11:53:55.978Z,26.76
2023-05-05T11:54:55.130Z,26.68
2023-05-05T11:55:55.103Z,26.60
2023-05-05T11:56:55.086Z,26.41
2023-05-05T11:57:55.097Z,26.27
2023-05-05T11:58:55.094Z,26.17
2023-05-05T11:59:55.105Z,26.08
2023-05-05T12:00:55.095Z,26.11
2023-05-05T12:01:55.023Z,26.19
2023-05-05T12:02:55.049Z,26.26
2023-05-05T12:03:55.302Z,26.29
2023-05-05T12:04:55.145Z,26.33
2023-05-05T12:05:55.008Z,26.48
2023-05-05T12:06:55.004Z,26.48
2023-05-05T12:07:54.978Z,26.40
2023-05-05T12:08:54.980Z,26.49
2023-05-05T12:09:54.958Z,26.74
2023-05-05T12:10:55.016Z,27.03
2023-05-05T12:11:54.938Z,27.13
2023-05-05T12:12:55.675Z,27.10
2023-05-05T12:13:54.924Z,27.12
2023-05-05T12:14:54.897Z,27.16
2023-05-05T12:15:54.977Z,27.16
2023-05-05T12:16:54.927Z,27.09
2023-05-05T12:17:54.883Z,26.89
2023-05-05T12:18:54.859Z,26.66
2023-05-05T12:19:54.857Z,26.65
2023-05-05T12:20:54.845Z,26.71
2023-05-05T12:21:54.837Z,26.67
2023-05-05T12:22:54.829Z,26.61
2023-05-05T12:23:54.823Z,26.59
2023-05-05T12:24:55.102Z,26.52
2023-05-05T12:25:54.791Z,26.39
2023-05-05T12:26:54.781Z,26.16
2023-05-05T12:27:54.776Z,25.86
2023-05-05T12:28:54.775Z,25.68
2023-05-05T12:29:54.756Z,25.62
2023-05-05T12:30:55.151Z,25.35
2023-05-05T12:31:54.736Z,24.92
2023-05-05T12:32:54.789Z,24.65
2023-05-05T12:33:54.712Z,24.51
2023-05-05T12:34:54.701Z,24.53
2023-05-05T12:35:54.710Z,24.63
2023-05-05T12:36:54.660Z,24.70
2023-05-05T12:37:54.700Z,24.81
2023-05-05T12:38:54.661Z,24.84
2023-05-05T12:39:54.640Z,24.71
2023-05-05T12:40:54.623Z,24.61
2023-05-05T12:41:54.637Z,24.67
2023-05-05T12:42:54.632Z,24.90
2023-05-05T12:43:54.604Z,25.12
2023-05-05T12:44:54.578Z,25.29
2023-05-05T12:45:54.619Z,25.53
2023-05-05T12:46:54.561Z,25.76
2023-05-05T12:47:54.618Z,25.96
2023-05-05T12:48:54.531Z,26.14
2023-05-05T12:49:54.547Z,26.27
2023-05-05T12:50:54.507Z,26.23
2023-05-05T12:51:54.512Z,26.14